Time;durP1;ratioP1;P1;durP2;ratioP2;P2;SDS_P1;SDS_P2;PMS_P1;PMS_P2;Temp;Humidity;BMP_temperature;BMP_pressure;BME280_temperature;BME280_humidity;BME280_pressure;Samples;Min_cycle;Max_cycle;Signal;HPM_P1;HPM_P2
2022/03/10 00:01:48;;;;;;;14.23;8.32;;;7.10;51.90;;;;;;5092725;28;20043;-33
2022/03/10 00:04:14;;;;;;;14.23;8.60;;;7.10;52.00;;;;;;5092620;28;20024;-32
2022/03/10 00:06:39;;;;;;;14.02;8.55;;;7.00;52.00;;;;;;5092739;28;20430;-33
2022/03/10 00:09:05;;;;;;;13.68;8.48;;;7.00;52.00;;;;;;5092666;28;20024;-34
2022/03/10 00:11:30;;;;;;;14.65;8.40;;;7.00;52.00;;;;;;5092560;28;20105;-32
2022/03/10 00:13:56;;;;;;;16.48;9.10;;;7.00;51.90;;;;;;5092739;28;20083;-32
2022/03/10 00:16:22;;;;;;;14.90;8.52;;;7.00;51.90;;;;;;5092599;28;20031;-31
2022/03/10 00:18:48;;;;;;;14.40;8.63;;;7.00;51.80;;;;;;5092615;28;20060;-40
2022/03/10 00:21:14;;;;;;;16.40;8.40;;;7.00;51.80;;;;;;5092565;28;20046;-32
2022/03/10 00:23:39;;;;;;;15.40;8.85;;;6.90;51.80;;;;;;5094563;28;20091;-34
2022/03/10 00:26:05;;;;;;;13.18;7.93;;;6.90;51.80;;;;;;5096433;28;20111;-37
2022/03/10 00:28:32;;;;;;;12.70;8.40;;;6.90;51.80;;;;;;5096323;28;20383;-31
2022/03/10 00:30:58;;;;;;;17.08;8.60;;;6.90;51.90;;;;;;5096631;28;20396;-32
2022/03/10 00:33:23;;;;;;;12.70;8.15;;;6.80;52.00;;;;;;5096412;28;20050;-31
2022/03/10 00:35:49;;;;;;;13.73;7.85;;;6.80;52.10;;;;;;5096323;28;20391;-31
2022/03/10 00:38:14;;;;;;;15.05;9.10;;;6.70;52.20;;;;;;5096561;28;20054;-31
2022/03/10 00:40:40;;;;;;;13.43;8.13;;;6.70;52.20;;;;;;5096368;28;20471;-32
2022/03/10 00:43:15;;;;;;;14.25;8.55;;;6.70;52.30;;;;;;5096174;28;20028;-33
2022/03/10 00:45:41;;;;;;;12.90;7.47;;;6.70;52.40;;;;;;5096027;28;20027;-34
2022/03/10 00:48:07;;;;;;;13.57;8.10;;;6.70;52.40;;;;;;5096345;28;20028;-31
2022/03/10 00:50:33;;;;;;;13.65;8.18;;;6.70;52.50;;;;;;5077782;28;20411;-33
2022/03/10 00:52:59;;;;;;;14.55;8.48;;;6.60;52.50;;;;;;5096009;28;20012;-31
2022/03/10 00:55:25;;;;;;;13.85;8.80;;;6.60;52.50;;;;;;5095980;28;20047;-31
2022/03/10 00:57:51;;;;;;;14.63;8.70;;;6.60;53.20;;;;;;5095897;28;20392;-32
2022/03/10 01:00:19;;;;;;;13.57;8.48;;;6.60;52.60;;;;;;5095975;28;20027;-31
2022/03/10 01:02:44;;;;;;;15.60;8.50;;;6.60;52.60;;;;;;5096086;28;20476;-33
2022/03/10 01:05:10;;;;;;;13.60;8.20;;;6.50;52.60;;;;;;5095698;28;20107;-32
2022/03/10 01:07:36;;;;;;;14.15;8.35;;;6.50;52.70;;;;;;5096026;28;20526;-37
2022/03/10 01:10:04;;;;;;;12.52;7.80;;;6.50;52.70;;;;;;5095716;28;20468;-34
2022/03/10 01:12:30;;;;;;;12.77;7.75;;;6.50;52.80;;;;;;5095811;28;20028;-36
2022/03/10 01:14:56;;;;;;;12.38;7.72;;;6.50;52.80;;;;;;5095756;28;20024;-33
2022/03/10 01:17:21;;;;;;;13.48;7.88;;;6.50;52.80;;;;;;5095649;28;20025;-34
2022/03/10 01:19:48;;;;;;;14.60;8.10;;;6.40;52.90;;;;;;5095507;28;20097;-31
2022/03/10 01:22:13;;;;;;;13.40;8.13;;;6.40;53.00;;;;;;5095816;28;20057;-32
2022/03/10 01:24:41;;;;;;;16.35;8.65;;;6.40;53.00;;;;;;5095319;28;20036;-32
2022/03/10 01:27:07;;;;;;;12.88;7.70;;;6.40;53.10;;;;;;5095317;28;20027;-33
2022/03/10 01:29:33;;;;;;;12.23;7.90;;;6.40;53.20;;;;;;5095361;28;20499;-34
2022/03/10 01:31:58;;;;;;;13.82;8.35;;;6.30;53.10;;;;;;5076994;28;20020;-33
2022/03/10 01:34:24;;;;;;;13.25;8.45;;;6.30;53.20;;;;;;5095238;28;20059;-31
2022/03/10 01:36:50;;;;;;;11.77;7.45;;;6.30;53.20;;;;;;5095155;28;20032;-31
2022/03/10 01:39:15;;;;;;;11.95;7.80;;;6.30;53.30;;;;;;5095430;28;20111;-32
2022/03/10 01:41:41;;;;;;;12.40;7.97;;;6.20;53.40;;;;;;5095131;28;20029;-36
2022/03/10 01:44:08;;;;;;;15.77;8.73;;;6.20;53.50;;;;;;5095064;28;20032;-32
2022/03/10 01:46:35;;;;;;;14.50;8.38;;;6.20;53.50;;;;;;5094954;28;20024;-32
2022/03/10 01:49:01;;;;;;;12.68;7.65;;;6.20;53.50;;;;;;5094892;28;20056;-33
2022/03/10 01:51:28;;;;;;;11.90;7.57;;;6.20;53.50;;;;;;5094946;28;20087;-31
2022/03/10 01:53:54;;;;;;;14.85;8.68;;;6.20;53.60;;;;;;5094823;28;20036;-32
2022/03/10 01:56:21;;;;;;;13.55;7.93;;;6.10;53.50;;;;;;5094635;28;20086;-32
2022/03/10 02:02:09;;;;;;;12.38;7.43;;;6.10;53.70;;;;;;5094801;28;20027;-31
2022/03/10 02:04:35;;;;;;;12.82;7.70;;;6.10;53.70;;;;;;5094798;28;20032;-30
2022/03/10 02:07:08;;;;;;;12.10;7.78;;;6.10;53.70;;;;;;5076494;28;20074;-31
2022/03/10 02:12:19;;;;;;;12.05;7.50;;;6.10;53.90;;;;;;5094505;28;20039;-31
2022/03/10 02:17:29;;;;;;;13.70;7.80;;;6.00;54.00;;;;;;5094396;28;20063;-30
2022/03/10 02:19:58;;;;;;;13.80;8.25;;;6.00;54.10;;;;;;5094413;28;20028;-30
2022/03/10 02:22:26;;;;;;;14.70;8.13;;;6.00;54.10;;;;;;5094321;28;20054;-32
2022/03/10 02:24:53;;;;;;;13.50;8.23;;;6.00;54.20;;;;;;5094218;28;20028;-31
2022/03/10 02:27:25;;;;;;;12.38;7.68;;;6.00;54.20;;;;;;5094225;28;20028;-33
2022/03/10 02:29:57;;;;;;;14.93;7.70;;;6.00;54.30;;;;;;5076013;28;20024;-31
2022/03/10 02:32:23;;;;;;;14.98;8.75;;;5.90;54.30;;;;;;5093992;28;20036;-30
2022/03/10 02:34:49;;;;;;;12.70;8.07;;;5.90;54.30;;;;;;5094052;28;20031;-35
2022/03/10 02:37:16;;;;;;;15.52;8.07;;;5.90;54.30;;;;;;5093963;28;20056;-35
2022/03/10 02:39:42;;;;;;;13.57;8.38;;;5.90;54.40;;;;;;5094200;28;20047;-31
2022/03/10 02:42:09;;;;;;;12.18;7.57;;;5.90;54.40;;;;;;5093935;28;20024;-32
2022/03/10 02:44:43;;;;;;;16.10;8.27;;;5.80;54.30;;;;;;5059144;28;20028;-34
2022/03/10 02:47:08;;;;;;;;;;;5.80;54.40;;;;;;5075338;28;20028;-42
2022/03/10 02:49:34;;;;;;;12.38;7.75;;;5.80;54.50;;;;;;5093857;28;19904;-30
2022/03/10 02:52:40;;;;;;;13.50;7.75;;;5.80;54.50;;;;;;5093875;28;20051;-32
2022/03/10 02:55:08;;;;;;;12.05;7.22;;;5.80;54.50;;;;;;5093310;28;20752;-32
2022/03/10 02:57:34;;;;;;;14.07;8.23;;;5.70;54.50;;;;;;5075314;28;20468;-30
2022/03/10 03:00:00;;;;;;;12.18;7.25;;;5.70;54.60;;;;;;5093574;28;20054;-32
2022/03/10 03:02:26;;;;;;;13.52;7.72;;;5.70;54.60;;;;;;5093489;28;20036;-32
2022/03/10 03:04:52;;;;;;;13.32;7.72;;;5.70;54.70;;;;;;5093618;28;20055;-30
2022/03/10 03:07:18;;;;;;;11.70;7.28;;;5.70;54.80;;;;;;5093687;28;20444;-31
2022/03/10 03:09:43;;;;;;;12.65;8.32;;;5.70;54.80;;;;;;5093451;28;20026;-35
2022/03/10 03:12:09;;;;;;;12.93;8.10;;;5.60;54.90;;;;;;5093426;28;20024;-32
2022/03/10 03:14:34;;;;;;;12.65;8.13;;;5.60;54.90;;;;;;5093413;28;20094;-33
2022/03/10 03:17:00;;;;;;;13.82;7.38;;;5.60;55.00;;;;;;5093237;28;20028;-30
2022/03/10 03:19:26;;;;;;;13.20;7.78;;;5.60;55.00;;;;;;5093403;28;20032;-31
2022/03/10 03:21:52;;;;;;;12.73;8.23;;;5.60;55.10;;;;;;5093482;28;20028;-32
2022/03/10 03:24:18;;;;;;;13.50;7.72;;;5.50;55.10;;;;;;5093379;28;20638;-30
2022/03/10 03:26:44;;;;;;;12.07;7.55;;;5.50;55.20;;;;;;5093081;28;20020;-31
2022/03/10 03:29:10;;;;;;;14.00;8.30;;;5.50;55.20;;;;;;5093154;28;20108;-30
2022/03/10 03:31:36;;;;;;;12.35;7.60;;;5.50;55.30;;;;;;5093062;28;20012;-37
2022/03/10 03:34:02;;;;;;;13.35;8.00;;;5.50;55.30;;;;;;5093052;28;20035;-32
2022/03/10 03:36:28;;;;;;;15.45;8.77;;;5.50;55.40;;;;;;5093039;28;20043;-35
2022/03/10 03:38:53;;;;;;;12.13;7.82;;;5.40;55.40;;;;;;5092906;28;20035;-32
2022/03/10 03:41:19;;;;;;;15.82;8.25;;;5.40;55.50;;;;;;5092914;28;20016;-35
2022/03/10 03:43:45;;;;;;;14.18;8.27;;;5.40;55.60;;;;;;5093022;28;20028;-33
2022/03/10 03:46:10;;;;;;;15.25;8.77;;;5.40;55.70;;;;;;5092835;28;20024;-36
2022/03/10 03:48:36;;;;;;;13.85;8.38;;;5.30;55.60;;;;;;5092951;28;20059;-30
2022/03/10 03:51:01;;;;;;;14.77;8.75;;;5.30;55.60;;;;;;5092833;28;20104;-30
2022/03/10 03:53:27;;;;;;;15.07;8.57;;;5.30;55.60;;;;;;5092930;28;20066;-32
2022/03/10 03:55:53;;;;;;;13.70;8.50;;;5.30;55.70;;;;;;5092685;28;20048;-31
2022/03/10 03:58:19;;;;;;;14.68;8.15;;;5.30;55.70;;;;;;5095988;28;20073;-30
2022/03/10 04:00:45;;;;;;;13.55;8.27;;;5.30;55.80;;;;;;5096995;28;20039;-31
2022/03/10 04:03:11;;;;;;;12.30;7.43;;;5.20;55.80;;;;;;5097027;28;20024;-30
2022/03/10 04:05:38;;;;;;;13.55;7.75;;;5.20;55.80;;;;;;5096837;28;20024;-30
2022/03/10 04:08:04;;;;;;;13.52;7.93;;;5.20;55.90;;;;;;5096922;28;20073;-30
2022/03/10 04:10:30;;;;;;;14.55;8.32;;;5.20;55.90;;;;;;5096879;28;20020;-32
2022/03/10 04:12:56;;;;;;;13.38;7.78;;;5.20;55.90;;;;;;5096843;28;20055;-31
2022/03/10 04:15:21;;;;;;;13.85;8.38;;;5.20;55.90;;;;;;5096877;28;20103;-30
2022/03/10 04:17:47;;;;;;;14.23;8.73;;;5.20;55.90;;;;;;5096726;28;20024;-30
2022/03/10 04:20:13;;;;;;;15.32;8.25;;;5.20;56.00;;;;;;5096735;28;20388;-35
2022/03/10 04:22:39;;;;;;;13.25;7.82;;;5.20;56.00;;;;;;5078505;28;20107;-35
2022/03/10 04:25:06;;;;;;;14.40;8.95;;;5.10;56.00;;;;;;5096536;28;20423;-30
2022/03/10 04:27:32;;;;;;;14.48;8.43;;;5.10;56.20;;;;;;5096543;28;20085;-30
2022/03/10 04:29:58;;;;;;;13.25;8.20;;;5.10;56.20;;;;;;5078265;28;20020;-33
2022/03/10 04:32:24;;;;;;;12.88;8.25;;;5.10;56.30;;;;;;5096492;28;20043;-30
2022/03/10 04:34:49;;;;;;;15.02;8.68;;;5.00;56.40;;;;;;5096367;28;20095;-34
2022/03/10 04:37:15;;;;;;;15.93;8.35;;;5.00;56.50;;;;;;5096380;28;20103;-32
2022/03/10 04:39:40;;;;;;;14.55;8.75;;;5.00;56.60;;;;;;5096463;28;20055;-31
2022/03/10 04:42:06;;;;;;;14.30;8.15;;;5.00;56.70;;;;;;5096323;28;20107;-48
2022/03/10 04:44:32;;;;;;;15.05;7.75;;;5.00;56.70;;;;;;5096205;28;20391;-48
2022/03/10 04:46:57;;;;;;;14.95;8.02;;;4.90;56.60;;;;;;5096180;28;20024;-47
2022/03/10 04:49:23;;;;;;;14.05;9.07;;;4.90;56.70;;;;;;5096317;28;20016;-48
2022/03/10 04:55:11;;;;;;;14.00;8.35;;;4.80;56.90;;;;;;5095897;28;20140;-47
2022/03/10 04:57:38;;;;;;;16.35;8.95;;;4.80;57.00;;;;;;5078053;28;20074;-48
2022/03/10 05:00:08;;;;;;;16.65;8.60;;;4.80;57.10;;;;;;5095942;28;20042;-48
2022/03/10 05:02:35;;;;;;;16.10;9.25;;;4.70;57.80;;;;;;5095875;28;20024;-48
2022/03/10 05:05:01;;;;;;;14.35;8.43;;;4.70;57.30;;;;;;5096016;28;20507;-47
2022/03/10 05:07:27;;;;;;;13.95;8.85;;;4.70;57.40;;;;;;5095895;28;20012;-47
2022/03/10 05:09:53;;;;;;;14.18;8.57;;;4.70;58.20;;;;;;5095030;28;20065;-47
2022/03/10 05:12:18;;;;;;;14.05;8.60;;;4.60;57.60;;;;;;5095724;28;20031;-47
2022/03/10 05:14:44;;;;;;;13.68;8.27;;;4.60;57.60;;;;;;5077590;28;20150;-32
2022/03/10 05:17:09;;;;;;;15.05;8.43;;;4.60;57.60;;;;;;5095608;28;20484;-31
2022/03/10 05:19:35;;;;;;;15.13;8.52;;;4.60;58.20;;;;;;5095689;28;20024;-30
2022/03/10 05:22:01;;;;;;;16.45;9.05;;;4.60;57.50;;;;;;5095595;28;20102;-29
2022/03/10 05:24:26;;;;;;;14.60;8.43;;;4.60;57.50;;;;;;5095480;28;20077;-31
2022/03/10 05:26:52;;;;;;;14.63;8.68;;;4.70;57.50;;;;;;5095417;28;20008;-30
2022/03/10 05:29:17;;;;;;;13.57;7.90;;;4.60;57.50;;;;;;5077198;28;20106;-47
2022/03/10 05:31:43;;;;;;;14.55;8.57;;;4.70;57.40;;;;;;5095150;28;20051;-40
2022/03/10 05:34:08;;;;;;;15.02;8.77;;;4.60;57.40;;;;;;5095116;28;20096;-40
2022/03/10 05:36:34;;;;;;;18.77;9.25;;;4.60;57.40;;;;;;5095021;28;20024;-40
2022/03/10 05:39:00;;;;;;;14.00;8.05;;;4.60;57.40;;;;;;5095236;28;20016;-39
2022/03/10 05:41:26;;;;;;;15.50;9.00;;;4.70;57.50;;;;;;5094939;28;20472;-41
2022/03/10 05:43:51;;;;;;;13.88;8.35;;;4.70;57.50;;;;;;5095065;28;20050;-40
2022/03/10 05:46:17;;;;;;;13.98;7.68;;;4.70;57.50;;;;;;5094746;28;20020;-40
2022/03/10 05:48:42;;;;;;;15.10;8.70;;;4.60;57.40;;;;;;5095066;28;20024;-40
2022/03/10 05:51:08;;;;;;;14.35;8.68;;;4.70;57.40;;;;;;5094880;28;20020;-40
2022/03/10 05:53:34;;;;;;;14.80;8.63;;;4.70;57.40;;;;;;5094898;28;20012;-39
2022/03/10 05:55:59;;;;;;;15.68;8.57;;;4.60;57.30;;;;;;5094849;28;20044;-40
2022/03/10 05:58:25;;;;;;;13.73;8.00;;;4.60;57.90;;;;;;5094863;28;20381;-40
2022/03/10 06:00:50;;;;;;;14.52;8.10;;;4.70;57.30;;;;;;5094738;28;20027;-39
2022/03/10 06:03:16;;;;;;;13.82;7.85;;;4.70;57.30;;;;;;5094636;28;20082;-40
2022/03/10 06:05:41;;;;;;;15.45;8.65;;;4.60;57.20;;;;;;5094585;28;20537;-39
2022/03/10 06:08:07;;;;;;;15.57;8.52;;;4.60;57.20;;;;;;5094527;28;20024;-40
2022/03/10 06:10:32;;;;;;;14.93;8.63;;;4.60;57.30;;;;;;5094706;28;20058;-40
2022/03/10 06:12:58;;;;;;;16.20;8.77;;;4.60;57.70;;;;;;5094328;28;20024;-41
2022/03/10 06:15:24;;;;;;;15.07;8.43;;;4.60;57.40;;;;;;5094482;28;20517;-40
2022/03/10 06:17:49;;;;;;;15.63;8.00;;;4.60;57.40;;;;;;5094346;28;20055;-40
2022/03/10 06:20:15;;;;;;;14.60;8.27;;;4.70;57.40;;;;;;5075625;28;20029;-40
2022/03/10 06:22:41;;;;;;;14.18;7.90;;;4.60;57.40;;;;;;5093934;28;20028;-41
2022/03/10 06:25:09;;;;;;;11.77;7.43;;;4.70;57.40;;;;;;5094229;28;20016;-40
2022/03/10 06:27:35;;;;;;;13.95;7.85;;;4.70;57.20;;;;;;5094514;28;20028;-40
2022/03/10 06:30:01;;;;;;;12.85;7.95;;;4.70;57.10;;;;;;5094056;28;20479;-39
2022/03/10 06:32:27;;;;;;;13.15;7.97;;;4.70;57.10;;;;;;5094141;28;20031;-40
2022/03/10 06:34:56;;;;;;;15.05;7.75;;;4.80;57.20;;;;;;5094149;28;20028;-41
2022/03/10 06:37:22;;;;;;;13.90;8.07;;;4.80;57.20;;;;;;5094264;28;20024;-40
2022/03/10 06:39:48;;;;;;;13.75;8.52;;;4.80;57.10;;;;;;5094334;28;20503;-40
2022/03/10 06:42:14;;;;;;;14.55;7.90;;;4.90;57.20;;;;;;5094028;28;20024;-40
2022/03/10 06:44:39;;;;;;;13.45;7.85;;;4.90;57.20;;;;;;5075703;28;20024;-39
2022/03/10 06:47:07;;;;;;;14.00;7.85;;;4.90;57.10;;;;;;5075749;28;20050;-41
2022/03/10 06:49:33;;;;;;;14.57;8.02;;;4.90;57.00;;;;;;5093803;28;20063;-40
2022/03/10 06:51:59;;;;;;;12.65;7.35;;;5.00;57.00;;;;;;5093777;28;20024;-40
2022/03/10 06:54:25;;;;;;;12.95;7.85;;;5.10;57.00;;;;;;5093650;28;20554;-40
2022/03/10 06:56:50;;;;;;;12.88;7.43;;;5.10;56.80;;;;;;5094230;28;20047;-40
2022/03/10 06:59:16;;;;;;;13.50;8.05;;;5.10;56.80;;;;;;5093744;28;20024;-40
2022/03/10 07:01:42;;;;;;;13.82;8.25;;;5.20;56.70;;;;;;5093560;28;20055;-40
2022/03/10 07:04:08;;;;;;;13.80;7.35;;;5.20;56.60;;;;;;5093700;28;20570;-41
2022/03/10 07:06:34;;;;;;;15.75;7.97;;;5.30;56.60;;;;;;5093529;28;20016;-41
2022/03/10 07:08:59;;;;;;;16.10;7.93;;;5.30;56.50;;;;;;5093471;28;20020;-40
2022/03/10 07:11:25;;;;;;;13.00;8.05;;;5.30;56.40;;;;;;5093499;28;20008;-41
2022/03/10 07:13:52;;;;;;;12.80;7.45;;;5.40;56.40;;;;;;5093657;28;20019;-40
2022/03/10 07:16:18;;;;;;;14.38;8.07;;;5.40;56.30;;;;;;5093371;28;20565;-39
2022/03/10 07:18:50;;;;;;;12.35;7.60;;;5.50;56.20;;;;;;5093334;28;20049;-41
2022/03/10 07:21:19;;;;;;;12.52;6.93;;;5.50;56.00;;;;;;5093246;28;20103;-41
2022/03/10 07:23:45;;;;;;;13.30;7.43;;;5.60;55.90;;;;;;5093461;28;20106;-39
2022/03/10 07:26:12;;;;;;;13.07;7.85;;;5.60;55.80;;;;;;5092675;28;20040;-40
2022/03/10 07:28:38;;;;;;;12.65;7.68;;;5.70;55.70;;;;;;5093098;28;20028;-40
2022/03/10 07:31:03;;;;;;;12.82;7.55;;;5.70;55.60;;;;;;5093181;28;20039;-39
2022/03/10 07:33:29;;;;;;;14.35;7.50;;;5.80;55.50;;;;;;5093023;28;20464;-42
2022/03/10 07:35:55;;;;;;;13.32;7.75;;;5.80;55.30;;;;;;5093402;28;20024;-39
2022/03/10 07:38:21;;;;;;;12.15;7.38;;;5.90;55.30;;;;;;5074959;28;20016;-41
2022/03/10 07:40:46;;;;;;;12.82;7.68;;;5.90;55.10;;;;;;5093242;28;20112;-40
2022/03/10 07:43:12;;;;;;;11.80;7.25;;;6.00;55.10;;;;;;5074901;28;20024;-39
2022/03/10 07:45:37;;;;;;;13.30;7.70;;;6.00;54.90;;;;;;5093045;28;20032;-40
2022/03/10 07:48:04;;;;;;;12.85;7.60;;;6.10;54.90;;;;;;5092792;28;20437;-41
2022/03/10 07:50:29;;;;;;;14.48;7.78;;;6.10;54.90;;;;;;5092775;28;20024;-40
2022/03/10 07:52:55;;;;;;;11.35;7.20;;;6.20;54.70;;;;;;5074703;28;20023;-39
2022/03/10 07:55:21;;;;;;;14.43;7.05;;;6.20;54.60;;;;;;5092749;28;20052;-40
2022/03/10 07:57:47;;;;;;;12.25;7.63;;;6.30;54.60;;;;;;5074661;28;20118;-41
2022/03/10 08:00:13;;;;;;;14.30;7.22;;;6.30;54.50;;;;;;5092805;28;20024;-40
2022/03/10 08:02:39;;;;;;;12.40;7.28;;;6.40;54.40;;;;;;5092702;28;20028;-41
2022/03/10 08:05:05;;;;;;;14.52;8.57;;;6.50;54.30;;;;;;5092664;28;20024;-41
2022/03/10 08:07:34;;;;;;;15.18;8.13;;;6.50;54.20;;;;;;5093134;28;20016;-40
2022/03/10 08:10:00;;;;;;;13.57;7.55;;;6.60;54.10;;;;;;5093000;28;20020;-41
2022/03/10 08:12:28;;;;;;;14.15;7.78;;;6.60;54.10;;;;;;5092969;28;20049;-40
2022/03/10 08:14:53;;;;;;;14.18;7.82;;;6.60;53.90;;;;;;5074552;28;20528;-40
2022/03/10 08:17:19;;;;;;;13.45;8.00;;;6.80;54.00;;;;;;5092714;28;20107;-40
2022/03/10 08:19:45;;;;;;;12.75;7.95;;;6.80;53.90;;;;;;5093067;28;20104;-40
2022/03/10 08:22:10;;;;;;;11.40;6.97;;;6.80;53.90;;;;;;5092580;28;20024;-40
2022/03/10 08:24:36;;;;;;;12.77;8.00;;;6.90;53.80;;;;;;5092661;28;20488;-41
2022/03/10 08:27:02;;;;;;;13.35;7.75;;;7.00;53.80;;;;;;5092535;28;20020;-40
2022/03/10 08:29:27;;;;;;;13.20;7.90;;;7.00;53.90;;;;;;5074517;28;20017;-40
2022/03/10 08:31:53;;;;;;;14.13;7.70;;;7.10;53.80;;;;;;5092647;28;20032;-40
2022/03/10 08:34:19;;;;;;;15.38;8.45;;;7.20;53.80;;;;;;5092608;28;20600;-39
2022/03/10 08:36:44;;;;;;;13.90;7.88;;;7.20;53.70;;;;;;5092928;28;20491;-40
2022/03/10 08:39:10;;;;;;;15.27;8.48;;;7.30;53.60;;;;;;5092417;28;20464;-40
2022/03/10 08:41:36;;;;;;;13.10;8.43;;;7.40;54.20;;;;;;5092490;28;20044;-40
2022/03/10 08:44:02;;;;;;;14.50;8.20;;;7.40;53.70;;;;;;5075027;28;20418;-39
2022/03/10 08:46:27;;;;;;;14.38;8.07;;;7.50;53.70;;;;;;5096496;28;20082;-40
2022/03/10 08:48:53;;;;;;;13.50;8.18;;;7.50;53.60;;;;;;5096357;28;20098;-40
2022/03/10 08:51:18;;;;;;;14.98;8.63;;;7.60;53.80;;;;;;5096160;28;20028;-40
2022/03/10 08:53:44;;;;;;;13.18;7.47;;;7.60;53.90;;;;;;5096183;28;20085;-40
2022/03/10 08:56:10;;;;;;;14.65;8.27;;;7.70;53.90;;;;;;5095867;28;20080;-41
2022/03/10 08:58:36;;;;;;;13.93;7.97;;;7.80;53.90;;;;;;5096018;28;20016;-41
2022/03/10 09:01:02;;;;;;;13.85;8.60;;;7.80;53.80;;;;;;5077768;28;20047;-39
2022/03/10 09:03:28;;;;;;;17.80;9.50;;;7.90;53.70;;;;;;5095813;28;20027;-40
2022/03/10 09:05:53;;;;;;;13.98;8.75;;;8.00;54.20;;;;;;5095900;28;20028;-40
2022/03/10 09:08:20;;;;;;;13.85;8.73;;;8.00;54.60;;;;;;5095782;28;20400;-40
2022/03/10 09:10:46;;;;;;;14.95;8.70;;;8.10;54.80;;;;;;5096016;28;20024;-41
2022/03/10 09:13:11;;;;;;;14.73;8.90;;;8.10;55.20;;;;;;5095729;28;20410;-41
2022/03/10 09:15:37;;;;;;;15.20;9.50;;;8.20;54.80;;;;;;5095911;28;20452;-41
2022/03/10 09:18:03;;;;;;;16.30;8.95;;;8.30;54.50;;;;;;5095832;28;20016;-40
2022/03/10 09:20:29;;;;;;;14.63;8.57;;;8.30;54.30;;;;;;5095514;28;20024;-40
2022/03/10 09:22:55;;;;;;;14.77;9.15;;;8.40;54.10;;;;;;5095467;28;20099;-40
2022/03/10 09:25:20;;;;;;;14.07;9.05;;;8.50;54.30;;;;;;5095489;28;20087;-41
2022/03/10 09:27:48;;;;;;;15.98;8.65;;;8.50;54.10;;;;;;5095504;28;20024;-41
2022/03/10 09:30:14;;;;;;;13.93;8.93;;;8.60;53.90;;;;;;5095627;28;20383;-41
2022/03/10 09:32:42;;;;;;;17.05;8.63;;;8.70;54.40;;;;;;5095422;28;20091;-41
2022/03/10 09:35:10;;;;;;;14.75;8.63;;;8.80;54.30;;;;;;5095471;28;20031;-39
2022/03/10 09:37:36;;;;;;;16.63;8.93;;;8.90;54.10;;;;;;5095383;28;20028;-41
2022/03/10 09:40:03;;;;;;;13.80;8.50;;;9.00;53.90;;;;;;5095174;28;20023;-41
2022/03/10 09:42:32;;;;;;;14.95;8.70;;;9.10;54.10;;;;;;5076630;28;20040;-40
2022/03/10 09:44:59;;;;;;;12.77;8.20;;;9.10;53.90;;;;;;5076881;28;20105;-44
2022/03/10 09:47:26;;;;;;;16.98;8.75;;;9.30;53.80;;;;;;5076905;28;20020;-40
2022/03/10 09:49:53;;;;;;;12.98;8.32;;;9.30;53.90;;;;;;5094909;28;20020;-41
2022/03/10 09:52:19;;;;;;;15.23;8.38;;;9.40;53.60;;;;;;5095192;28;20356;-40
2022/03/10 09:54:45;;;;;;;14.30;8.85;;;9.50;54.10;;;;;;5094835;28;20044;-41
2022/03/10 09:57:14;;;;;;;15.85;9.18;;;9.60;53.90;;;;;;5094975;28;20396;-41
2022/03/10 09:59:49;;;;;;;14.95;9.07;;;9.70;53.60;;;;;;5094844;28;20496;-41
2022/03/10 10:02:15;;;;;;;15.00;9.13;;;9.80;53.90;;;;;;5094789;28;20024;-40
2022/03/10 10:04:41;;;;;;;14.45;8.65;;;9.90;53.50;;;;;;5094627;28;20032;-41
2022/03/10 10:07:10;;;;;;;14.18;8.48;;;9.90;53.60;;;;;;5094760;28;20099;-40
2022/03/10 10:09:43;;;;;;;14.75;9.07;;;10.00;53.70;;;;;;5094814;28;20020;-41
2022/03/10 10:12:10;;;;;;;15.97;9.00;;;10.10;53.20;;;;;;5094935;28;20050;-40
2022/03/10 10:14:37;;;;;;;16.27;8.50;;;10.20;53.10;;;;;;5094643;28;20035;-41
2022/03/10 10:17:03;;;;;;;14.50;8.60;;;10.30;53.40;;;;;;5094753;28;20050;-40
2022/03/10 10:19:33;;;;;;;16.27;8.93;;;10.40;53.30;;;;;;5094599;28;20024;-41
2022/03/10 10:22:13;;;;;;;15.82;9.30;;;10.50;53.60;;;;;;5094434;28;20107;-41
2022/03/10 10:24:45;;;;;;;16.33;8.65;;;10.60;53.90;;;;;;5076224;28;20052;-40
2022/03/10 10:27:13;;;;;;;13.80;8.40;;;10.70;54.40;;;;;;5094338;28;20380;-41
2022/03/10 10:29:53;;;;;;;16.73;9.40;;;10.80;54.00;;;;;;5094511;28;20421;-41
2022/03/10 10:32:26;;;;;;;15.27;9.23;;;10.90;53.70;;;;;;5094190;28;20024;-41
2022/03/10 10:34:59;;;;;;;15.43;8.73;;;11.00;53.40;;;;;;5094113;28;20369;-41
2022/03/10 10:37:24;;;;;;;15.55;9.57;;;11.10;53.10;;;;;;5094115;28;20491;-41
2022/03/10 10:39:56;;;;;;;16.38;10.02;;;11.20;52.80;;;;;;5094140;28;20055;-40
2022/03/10 10:42:27;;;;;;;13.23;8.30;;;11.30;52.90;;;;;;5094031;28;20031;-40
2022/03/10 10:44:52;;;;;;;14.15;8.40;;;11.40;53.80;;;;;;5093855;28;20056;-40
2022/03/10 10:47:18;;;;;;;15.88;9.40;;;11.50;53.80;;;;;;5093707;28;20065;-41
2022/03/10 10:49:44;;;;;;;16.65;9.07;;;11.60;53.30;;;;;;5093798;28;20016;-40
2022/03/10 10:52:12;;;;;;;14.70;9.20;;;11.60;53.00;;;;;;5093758;28;20376;-40
2022/03/10 10:54:38;;;;;;;13.25;8.70;;;11.70;52.90;;;;;;5093687;28;20190;-42
2022/03/10 10:57:07;;;;;;;14.60;8.90;;;11.80;52.90;;;;;;5093616;28;20020;-40
2022/03/10 10:59:34;;;;;;;15.52;8.82;;;11.90;53.80;;;;;;5093873;28;20031;-40
2022/03/10 11:02:16;;;;;;;16.63;9.35;;;11.90;53.70;;;;;;5075405;28;20081;-40
2022/03/10 11:04:50;;;;;;;13.95;8.88;;;12.00;53.00;;;;;;5093370;28;20532;-39
2022/03/10 11:07:16;;;;;;;15.07;9.45;;;12.10;52.90;;;;;;5093095;28;20020;-39
2022/03/10 11:09:44;;;;;;;12.23;7.60;;;12.10;52.80;;;;;;5093581;28;20329;-41
2022/03/10 11:12:13;;;;;;;15.05;9.02;;;12.20;53.10;;;;;;5093458;28;20123;-41
2022/03/10 11:14:40;;;;;;;13.48;8.38;;;12.30;53.20;;;;;;5093647;28;20476;-41
2022/03/10 11:17:06;;;;;;;14.57;8.63;;;12.30;53.00;;;;;;5075174;28;20107;-41
2022/03/10 11:19:35;;;;;;;11.95;7.88;;;12.40;54.00;;;;;;5093307;28;20019;-41
2022/03/10 11:22:31;;;;;;;13.70;7.63;;;12.50;54.60;;;;;;5093294;28;20024;-41
2022/03/10 11:25:18;;;;;;;13.85;8.23;;;12.50;55.10;;;;;;5074906;28;20488;-40
2022/03/10 11:27:53;;;;;;;15.25;8.25;;;12.60;55.60;;;;;;5093296;28;20047;-40
2022/03/10 11:30:27;;;;;;;15.60;8.20;;;12.70;56.00;;;;;;5093110;28;20051;-40
2022/03/10 11:33:09;;;;;;;13.55;8.48;;;12.70;56.20;;;;;;5093134;28;20016;-41
2022/03/10 11:35:43;;;;;;;9.23;5.68;;;12.80;55.40;;;;;;5093173;28;20024;-40
2022/03/10 11:38:10;;;;;;;9.30;6.03;;;12.80;57.30;;;;;;5093081;28;20491;-40
2022/03/10 11:40:41;;;;;;;15.25;7.75;;;12.90;56.90;;;;;;5092968;28;20543;-40
2022/03/10 11:43:07;;;;;;;13.45;7.80;;;12.90;56.70;;;;;;5093213;28;20030;-41
2022/03/10 11:45:33;;;;;;;11.60;8.02;;;12.90;55.60;;;;;;5092855;28;20476;-41
2022/03/10 11:48:29;;;;;;;11.50;6.95;;;13.00;56.80;;;;;;5092757;28;20020;-40
2022/03/10 11:50:55;;;;;;;10.30;6.20;;;13.10;56.20;;;;;;5092829;28;20097;-41
2022/03/10 11:53:21;;;;;;;10.02;5.82;;;13.10;56.20;;;;;;5092812;28;20024;-41
2022/03/10 11:55:48;;;;;;;11.82;6.72;;;13.10;56.10;;;;;;5092701;28;20127;-41
2022/03/10 11:58:14;;;;;;;11.52;7.35;;;13.20;56.10;;;;;;5093016;28;20031;-41
2022/03/10 12:00:49;;;;;;;10.15;6.45;;;13.30;55.70;;;;;;5092860;28;20106;-42
2022/03/10 12:03:18;;;;;;;7.18;4.25;;;13.40;55.80;;;;;;5092975;28;20514;-41
2022/03/10 12:05:57;;;;;;;12.40;7.03;;;13.40;56.60;;;;;;5092779;28;20067;-40
2022/03/10 12:08:34;;;;;;;11.77;7.25;;;13.50;56.20;;;;;;5092809;28;20442;-42
2022/03/10 12:11:01;;;;;;;10.43;6.43;;;13.60;55.80;;;;;;5093179;28;20077;-41
2022/03/10 12:13:34;;;;;;;13.15;8.40;;;13.60;56.20;;;;;;5092759;28;20041;-40
2022/03/10 12:20:00;;;;;;;10.50;6.30;;;13.70;55.60;;;;;;5094115;28;20482;-40
2022/03/10 12:22:29;;;;;;;;;;;13.80;55.10;;;;;;5097116;28;20028;-40
2022/03/10 12:25:18;;;;;;;11.23;6.13;;;13.80;57.00;;;;;;5096760;28;19907;-41
2022/03/10 12:27:50;;;;;;;10.77;6.28;;;13.80;56.00;;;;;;5096571;28;20016;-41
2022/03/10 12:30:20;;;;;;;11.43;6.10;;;13.80;56.30;;;;;;5096907;28;20046;-41
2022/03/10 12:32:51;;;;;;;8.65;5.55;;;13.90;56.20;;;;;;5096540;28;20401;-41
2022/03/10 12:35:20;;;;;;;11.30;6.82;;;13.90;56.50;;;;;;5096623;28;20022;-41
2022/03/10 12:37:47;;;;;;;12.60;7.50;;;13.90;56.10;;;;;;5096317;28;20072;-41
2022/03/10 12:40:26;;;;;;;12.75;8.02;;;14.00;55.60;;;;;;5096352;28;20024;-41
2022/03/10 12:43:03;;;;;;;8.65;6.13;;;14.10;54.40;;;;;;5096314;28;20503;-41
2022/03/10 12:45:29;;;;;;;12.98;8.50;;;14.20;54.80;;;;;;5096167;28;20043;-41
2022/03/10 12:48:12;;;;;;;10.20;7.03;;;14.30;54.90;;;;;;5096416;28;20442;-41
2022/03/10 12:50:38;;;;;;;8.98;5.00;;;14.40;53.80;;;;;;5096189;28;20126;-41
2022/03/10 12:53:12;;;;;;;15.82;7.72;;;14.50;54.80;;;;;;5096211;28;20052;-40
2022/03/10 12:55:38;;;;;;;15.13;8.38;;;14.60;53.30;;;;;;5096004;28;20081;-41
2022/03/10 12:58:03;;;;;;;12.30;7.32;;;14.70;52.90;;;;;;5096140;28;20032;-42
2022/03/10 13:00:29;;;;;;;9.93;6.47;;;14.80;53.00;;;;;;5096098;28;20024;-41
2022/03/10 13:02:58;;;;;;;12.45;6.97;;;14.90;53.00;;;;;;5096047;28;20016;-41